Time;durP1;ratioP1;P1;durP2;ratioP2;P2;SDS_P1;SDS_P2;PMS_P1;PMS_P2;Temp;Humidity;BMP_temperature;BMP_pressure;BME280_temperature;BME280_humidity;BME280_pressure;Samples;Min_cycle;Max_cycle;Signal;HPM_P1;HPM_P2
2023/10/18 05:47:39;;;;;;;;;9.50;9.50;;;;;;;;6280197;22;47068;-72
2023/10/18 05:50:12;;;;;;;;;15.25;13.50;;;;;;;;6339616;22;45242;-72
2023/10/18 05:52:37;;;;;;;;;11.75;11.75;;;;;;;;6337560;22;45390;-72
2023/10/18 05:55:08;;;;;;;;;14.75;11.50;;;;;;;;6337477;22;45472;-72
2023/10/18 05:57:33;;;;;;;;;15.00;13.00;;;;;;;;6338660;22;46824;-74
2023/10/18 05:59:59;;;;;;;;;11.75;11.75;;;;;;;;6339257;22;45274;-73
2023/10/18 06:02:25;;;;;;;;;14.00;12.00;;;;;;;;6310244;22;45352;-72
2023/10/18 06:04:51;;;;;;;;;12.25;10.50;;;;;;;;6309970;22;46478;-71
2023/10/18 06:07:18;;;;;;;;;13.25;12.25;;;;;;;;6337828;22;45521;-70
2023/10/18 06:09:47;;;;;;;;;14.75;11.50;;;;;;;;6339420;22;45590;-71
2023/10/18 06:12:22;;;;;;;;;12.25;12.25;;;;;;;;6339104;22;45215;-73
2023/10/18 06:14:47;;;;;;;;;14.25;11.50;;;;;;;;6339332;22;45186;-71
2023/10/18 06:17:12;;;;;;;;;10.75;10.75;;;;;;;;6309876;22;47072;-71
2023/10/18 06:19:38;;;;;;;;;13.50;12.25;;;;;;;;6311932;22;45317;-71
2023/10/18 06:22:15;;;;;;;;;15.25;13.50;;;;;;;;6338879;22;45290;-71
2023/10/18 06:24:43;;;;;;;;;15.00;13.00;;;;;;;;6339663;22;45430;-71
2023/10/18 06:27:08;;;;;;;;;15.50;10.25;;;;;;;;6338487;22;46243;-72
2023/10/18 06:29:36;;;;;;;;;11.75;10.00;;;;;;;;6339759;22;45290;-71
2023/10/18 06:32:04;;;;;;;;;10.75;10.75;;;;;;;;6310122;22;45561;-71
2023/10/18 06:34:32;;;;;;;;;8.00;7.00;;;;;;;;6340260;22;45315;-72
2023/10/18 06:37:01;;;;;;;;;11.25;11.25;;;;;;;;6338847;22;45226;-71
2023/10/18 06:39:28;;;;;;;;;11.75;11.00;;;;;;;;6339147;22;45286;-71
2023/10/18 06:41:54;;;;;;;;;12.00;11.50;;;;;;;;6310958;22;45425;-71
2023/10/18 06:44:19;;;;;;;;;16.75;12.00;;;;;;;;6339390;22;45230;-71
2023/10/18 06:46:47;;;;;;;;;17.50;12.25;;;;;;;;6338717;22;45337;-71
2023/10/18 06:49:12;;;;;;;;;13.75;11.75;;;;;;;;6339320;22;45325;-72
2023/10/18 06:51:41;;;;;;;;;13.75;13.50;;;;;;;;6310526;22;45313;-72
2023/10/18 06:54:12;;;;;;;;;9.25;9.00;;;;;;;;6339012;22;45282;-72
2023/10/18 06:56:45;;;;;;;;;17.00;11.00;;;;;;;;6339377;22;46179;-72
2023/10/18 06:59:10;;;;;;;;;16.00;14.25;;;;;;;;6339041;22;45365;-72
2023/10/18 07:01:42;;;;;;;;;13.00;13.00;;;;;;;;6338822;22;45293;-72
2023/10/18 07:04:26;;;;;;;;;14.75;12.25;;;;;;;;6338521;22;45264;-72
2023/10/18 07:06:52;;;;;;;;;14.75;14.75;;;;;;;;6338948;22;46639;-72
2023/10/18 07:09:24;;;;;;;;;17.25;13.75;;;;;;;;6339263;22;45168;-72
2023/10/18 07:11:50;;;;;;;;;15.50;13.25;;;;;;;;6339488;22;44649;-74
2023/10/18 07:14:16;;;;;;;;;17.00;13.25;;;;;;;;6310976;22;45860;-73
2023/10/18 07:16:42;;;;;;;;;15.50;14.00;;;;;;;;6311330;22;47614;-72
2023/10/18 07:19:22;;;;;;;;;15.50;12.00;;;;;;;;6340464;22;45182;-72
2023/10/18 07:21:50;;;;;;;;;13.50;13.50;;;;;;;;6340417;22;45105;-74
2023/10/18 07:24:17;;;;;;;;;13.25;13.25;;;;;;;;6339608;22;45705;-73
2023/10/18 07:26:43;;;;;;;;;15.75;13.25;;;;;;;;6340056;22;46425;-72
2023/10/18 07:29:08;;;;;;;;;15.75;15.00;;;;;;;;6338774;22;45264;-72
2023/10/18 07:31:38;;;;;;;;;13.25;12.75;;;;;;;;6340219;22;45254;-72
2023/10/18 07:34:03;;;;;;;;;11.25;11.25;;;;;;;;6340606;22;45096;-73
2023/10/18 07:36:29;;;;;;;;;13.00;12.50;;;;;;;;6339825;22;45752;-73
2023/10/18 07:38:57;;;;;;;;;15.25;12.00;;;;;;;;6311113;22;45265;-72
2023/10/18 07:41:28;;;;;;;;;13.00;13.00;;;;;;;;6340210;22;45515;-73
2023/10/18 07:43:55;;;;;;;;;12.25;9.00;;;;;;;;6310657;22;46834;-73
2023/10/18 07:46:24;;;;;;;;;14.50;11.75;;;;;;;;6337826;22;46225;-73
2023/10/18 07:48:52;;;;;;;;;12.50;10.75;;;;;;;;6339657;22;45261;-73
2023/10/18 07:51:24;;;;;;;;;13.50;11.25;;;;;;;;6340158;22;45295;-73
2023/10/18 07:53:50;;;;;;;;;14.00;13.00;;;;;;;;6311388;22;45301;-73
2023/10/18 07:56:16;;;;;;;;;16.50;15.25;;;;;;;;6339414;22;45922;-73
2023/10/18 07:58:48;;;;;;;;;16.75;15.50;;;;;;;;6340195;22;45338;-73
2023/10/18 08:01:13;;;;;;;;;13.75;13.00;;;;;;;;6311727;22;45286;-73
2023/10/18 08:03:39;;;;;;;;;18.75;16.25;;;;;;;;6340104;22;45261;-73
2023/10/18 08:06:15;;;;;;;;;12.50;12.00;;;;;;;;6335335;22;45640;-71
2023/10/18 08:08:41;;;;;;;;;16.00;15.50;;;;;;;;6338232;22;45227;-72
2023/10/18 08:11:11;;;;;;;;;14.25;14.25;;;;;;;;6311744;22;45242;-73
2023/10/18 08:13:45;;;;;;;;;16.00;14.25;;;;;;;;6312937;22;45275;-73
2023/10/18 08:16:10;;;;;;;;;22.00;21.75;;;;;;;;6310919;22;47132;-72
2023/10/18 08:18:44;;;;;;;;;18.75;17.00;;;;;;;;6311490;22;45212;-72
2023/10/18 08:23:55;;;;;;;;;16.75;14.25;;;;;;;;6341089;22;45243;-72
2023/10/18 08:26:21;;;;;;;;;22.00;19.00;;;;;;;;6312203;22;46799;-72
2023/10/18 08:28:46;;;;;;;;;16.50;15.50;;;;;;;;6341155;22;45206;-72
2023/10/18 08:31:16;;;;;;;;;17.50;16.50;;;;;;;;6340868;22;45187;-72
2023/10/18 08:33:42;;;;;;;;;17.25;16.00;;;;;;;;6340733;22;45650;-72
2023/10/18 08:36:09;;;;;;;;;16.00;15.00;;;;;;;;6340541;22;45334;-71
2023/10/18 08:38:35;;;;;;;;;27.50;21.75;;;;;;;;6312580;22;45259;-73
2023/10/18 08:41:13;;;;;;;;;35.00;32.25;;;;;;;;6340442;22;45294;-72
2023/10/18 08:43:44;;;;;;;;;21.00;17.25;;;;;;;;6340573;22;46020;-72
2023/10/18 08:46:10;;;;;;;;;17.33;14.00;;;;;;;;6311977;22;45658;-72
2023/10/18 08:48:40;;;;;;;;;18.00;16.33;;;;;;;;6339995;22;45737;-72
2023/10/18 08:51:06;;;;;;;;;26.00;24.50;;;;;;;;6340964;22;45345;-72
2023/10/18 08:53:31;;;;;;;;;15.00;11.33;;;;;;;;6341039;22;45485;-74
2023/10/18 08:55:57;;;;;;;;;15.00;14.00;;;;;;;;6341208;22;45593;-72
2023/10/18 08:58:28;;;;;;;;;14.00;12.67;;;;;;;;6341172;22;45280;-72
2023/10/18 09:01:02;;;;;;;;;16.33;16.00;;;;;;;;6341372;22;45207;-72
2023/10/18 09:03:29;;;;;;;;;18.67;16.00;;;;;;;;6339878;22;46164;-73
2023/10/18 09:06:04;;;;;;;;;12.67;10.67;;;;;;;;6340666;22;45258;-72
2023/10/18 09:08:35;;;;;;;;;13.00;13.00;;;;;;;;6312240;22;45248;-72
2023/10/18 09:11:04;;;;;;;;;14.00;11.00;;;;;;;;6340604;22;45243;-72
2023/10/18 09:13:33;;;;;;;;;21.33;18.33;;;;;;;;6340678;22;45239;-72
2023/10/18 09:16:01;;;;;;;;;10.33;10.33;;;;;;;;6340492;22;46007;-72
2023/10/18 09:18:27;;;;;;;;;15.67;15.67;;;;;;;;6340232;22;45218;-72
2023/10/18 09:20:55;;;;;;;;;18.67;16.33;;;;;;;;6340867;22;45348;-72
2023/10/18 09:23:21;;;;;;;;;19.33;14.67;;;;;;;;6312250;22;46014;-72
2023/10/18 09:26:04;;;;;;;;;13.00;12.00;;;;;;;;6340631;22;45210;-73
2023/10/18 09:28:32;;;;;;;;;16.67;16.67;;;;;;;;6340182;22;45256;-72
2023/10/18 09:31:02;;;;;;;;;16.67;14.33;;;;;;;;6312567;22;45287;-73
2023/10/18 09:33:32;;;;;;;;;13.33;12.67;;;;;;;;6311801;22;47172;-73
2023/10/18 09:36:07;;;;;;;;;13.67;13.33;;;;;;;;6340504;22;45444;-72
2023/10/18 09:38:39;;;;;;;;;9.67;8.67;;;;;;;;6312626;22;45251;-73
2023/10/18 09:41:04;;;;;;;;;9.67;9.67;;;;;;;;6341018;22;45280;-73
2023/10/18 09:43:30;;;;;;;;;9.67;9.67;;;;;;;;6312298;22;45393;-72
2023/10/18 09:45:59;;;;;;;;;13.33;10.33;;;;;;;;6340227;22;46450;-73
2023/10/18 09:48:25;;;;;;;;;10.67;7.67;;;;;;;;6340654;22;45261;-73
2023/10/18 09:50:50;;;;;;;;;5.67;4.67;;;;;;;;6340774;22;45206;-73
2023/10/18 09:53:21;;;;;;;;;11.33;11.33;;;;;;;;6340636;22;45157;-73
2023/10/18 09:55:47;;;;;;;;;9.67;9.67;;;;;;;;6340163;22;46056;-73
2023/10/18 09:58:18;;;;;;;;;11.00;10.00;;;;;;;;6340550;22;45379;-72
2023/10/18 10:00:47;;;;;;;;;9.00;9.00;;;;;;;;6340831;22;45316;-73
2023/10/18 10:03:16;;;;;;;;;10.67;10.67;;;;;;;;6339624;22;45179;-73
2023/10/18 10:05:42;;;;;;;;;12.67;10.67;;;;;;;;6340190;22;46399;-73
2023/10/18 10:08:08;;;;;;;;;10.00;9.00;;;;;;;;6339716;22;45283;-73
2023/10/18 10:10:44;;;;;;;;;10.00;9.00;;;;;;;;6341235;22;45330;-74
2023/10/18 10:13:25;;;;;;;;;9.67;8.00;;;;;;;;6312163;22;46257;-74
2023/10/18 10:15:55;;;;;;;;;8.00;6.00;;;;;;;;6340868;22;45264;-74
2023/10/18 10:18:32;;;;;;;;;11.67;11.33;;;;;;;;6340416;22;45356;-73
2023/10/18 10:20:57;;;;;;;;;11.33;10.33;;;;;;;;6339285;22;45394;-74
2023/10/18 10:23:23;;;;;;;;;12.00;10.00;;;;;;;;6340693;22;45361;-75
2023/10/18 10:25:58;;;;;;;;;10.33;10.33;;;;;;;;6338955;22;45212;-75
2023/10/18 10:31:51;;;;;;;;;11.33;10.33;;;;;;;;6262541;22;45238;-75
2023/10/18 10:34:27;;;;;;;;;11.33;10.33;;;;;;;;6340287;22;45464;-75
2023/10/18 10:36:53;;;;;;;;;23.67;19.33;;;;;;;;6340427;22;46139;-73
2023/10/18 10:39:30;;;;;;;;;10.67;10.67;;;;;;;;6312061;22;45259;-73
2023/10/18 10:42:00;;;;;;;;;12.00;10.00;;;;;;;;6340374;22;45452;-73
2023/10/18 10:44:30;;;;;;;;;9.00;8.00;;;;;;;;6340503;22;45183;-74
2023/10/18 10:47:14;;;;;;;;;16.00;15.00;;;;;;;;6337656;22;45503;-74
2023/10/18 10:49:49;;;;;;;;;11.33;9.00;;;;;;;;6311403;22;45329;-74
2023/10/18 10:52:18;;;;;;;;;12.67;10.00;;;;;;;;6340662;22;45404;-73
2023/10/18 10:54:47;;;;;;;;;39.67;31.33;;;;;;;;6313574;22;45950;-74
2023/10/18 10:57:14;;;;;;;;;11.33;9.00;;;;;;;;6342132;22;45364;-74
2023/10/18 10:59:49;;;;;;;;;15.33;9.33;;;;;;;;6340540;22;45323;-73
2023/10/18 11:02:24;;;;;;;;;11.33;11.33;;;;;;;;6309155;22;45325;-74
2023/10/18 11:04:50;;;;;;;;;12.33;11.33;;;;;;;;6338182;22;45514;-74
2023/10/18 11:07:21;;;;;;;;;10.67;10.67;;;;;;;;6337346;22;46280;-75
2023/10/18 11:09:47;;;;;;;;;12.67;12.33;;;;;;;;6340619;22;44573;-74
2023/10/18 11:12:13;;;;;;;;;11.33;11.33;;;;;;;;6339955;22;45220;-74
2023/10/18 11:14:41;;;;;;;;;15.33;12.33;;;;;;;;6340063;22;45514;-74
2023/10/18 11:19:41;;;;;;;;;12.67;11.33;;;;;;;;6340637;22;45306;-73
2023/10/18 11:22:19;;;;;;;;;13.33;13.00;;;;;;;;6339661;22;45246;-74
2023/10/18 11:24:52;;;;;;;;;48.00;36.75;;;;;;;;6311774;22;47005;-74
2023/10/18 11:27:21;;;;;;;;;13.00;9.00;;;;;;;;6339560;22;45461;-73
2023/10/18 11:29:47;;;;;;;;;15.00;12.67;;;;;;;;6340258;22;45135;-73
2023/10/18 11:32:18;;;;;;;;;17.00;14.33;;;;;;;;6339402;22;45237;-73
2023/10/18 11:34:43;;;;;;;;;21.00;17.00;;;;;;;;6340207;22;45302;-73
2023/10/18 11:37:09;;;;;;;;;23.33;20.67;;;;;;;;6339795;22;46165;-74
2023/10/18 11:39:36;;;;;;;;;38.75;33.25;;;;;;;;6312019;22;45629;-73
2023/10/18 11:42:02;;;;;;;;;17.33;17.33;;;;;;;;6339619;22;45113;-72
2023/10/18 11:44:27;;;;;;;;;14.67;14.67;;;;;;;;6339107;22;45184;-72
2023/10/18 11:46:57;;;;;;;;;13.67;12.00;;;;;;;;6338023;22;46138;-73
2023/10/18 11:49:32;;;;;;;;;7.67;7.67;;;;;;;;6340254;22;45301;-73
2023/10/18 11:51:57;;;;;;;;;19.00;17.33;;;;;;;;6339700;22;45278;-73
2023/10/18 11:54:29;;;;;;;;;16.33;12.67;;;;;;;;6340019;22;45472;-72
2023/10/18 11:56:56;;;;;;;;;11.33;11.33;;;;;;;;6340046;22;45285;-73
2023/10/18 11:59:22;;;;;;;;;8.67;8.67;;;;;;;;6340178;22;45373;-72
2023/10/18 12:01:53;;;;;;;;;12.00;11.33;;;;;;;;6339863;22;45195;-72
2023/10/18 12:04:27;;;;;;;;;12.33;11.67;;;;;;;;6340015;22;45255;-72
2023/10/18 12:06:52;;;;;;;;;13.00;10.33;;;;;;;;6339770;22;45416;-73
2023/10/18 12:10:01;;;;;;;;;15.33;12.33;;;;;;;;6339864;22;45225;-73
2023/10/18 12:12:07;;;;;;;;;11.00;11.00;;;;;;;;6321806;22;45267;-73
2023/10/18 12:14:32;;;;;;;;;16.33;14.33;;;;;;;;6339821;22;45309;-72
2023/10/18 12:17:00;;;;;;;;;12.33;12.33;;;;;;;;6310337;22;46751;-73
2023/10/18 12:19:27;;;;;;;;;15.67;13.33;;;;;;;;6339616;22;45313;-73
2023/10/18 12:21:59;;;;;;;;;15.33;11.33;;;;;;;;6341147;22;45279;-74
2023/10/18 12:24:27;;;;;;;;;15.33;15.33;;;;;;;;6341655;22;45144;-74
2023/10/18 12:26:55;;;;;;;;;44.33;34.33;;;;;;;;6340079;22;45844;-73
2023/10/18 12:29:26;;;;;;;;;44.25;34.50;;;;;;;;6311169;22;45290;-74
2023/10/18 12:31:52;;;;;;;;;20.00;19.33;;;;;;;;6337517;22;45168;-74
2023/10/18 12:34:21;;;;;;;;;20.67;15.67;;;;;;;;6338845;22;45401;-74
2023/10/18 12:36:49;;;;;;;;;12.33;10.67;;;;;;;;6338780;22;45402;-74
2023/10/18 12:39:20;;;;;;;;;13.00;12.33;;;;;;;;6339493;22;45214;-74
2023/10/18 12:41:46;;;;;;;;;16.00;14.00;;;;;;;;6339507;22;45286;-74
2023/10/18 12:44:18;;;;;;;;;25.67;24.33;;;;;;;;6338616;22;45392;-74
2023/10/18 12:46:43;;;;;;;;;14.00;12.33;;;;;;;;6338326;22;45602;-74
2023/10/18 12:49:11;;;;;;;;;16.33;16.00;;;;;;;;6339606;22;45337;-74
2023/10/18 12:51:42;;;;;;;;;14.33;13.00;;;;;;;;6339643;22;45251;-74
2023/10/18 12:54:19;;;;;;;;;14.67;12.33;;;;;;;;6339016;22;45143;-74
2023/10/18 12:56:56;;;;;;;;;13.33;12.00;;;;;;;;6338459;22;46321;-74
2023/10/18 12:59:24;;;;;;;;;18.00;15.67;;;;;;;;6339722;22;45246;-74
2023/10/18 13:01:50;;;;;;;;;13.00;11.67;;;;;;;;6339383;22;45238;-75
2023/10/18 13:04:22;;;;;;;;;14.33;12.67;;;;;;;;6344054;22;45432;-75
2023/10/18 13:06:48;;;;;;;;;16.67;15.33;;;;;;;;6342915;22;45247;-75
2023/10/18 13:14:16;;;;;;;;;12.33;11.33;;;;;;;;6340313;22;45219;-72
2023/10/18 13:16:45;;;;;;;;;5.00;5.00;;;;;;;;6339760;22;46265;-72
2023/10/18 13:19:14;;;;;;;;;13.67;11.00;;;;;;;;6339070;22;45266;-72
2023/10/18 13:21:39;;;;;;;;;8.67;8.67;;;;;;;;6341043;22;45283;-71
2023/10/18 13:24:17;;;;;;;;;11.33;9.00;;;;;;;;6339048;22;45210;-72
2023/10/18 13:26:52;;;;;;;;;13.33;12.00;;;;;;;;6340417;22;45279;-72
2023/10/18 13:31:46;;;;;;;;;12.67;9.00;;;;;;;;6340371;22;45219;-75
2023/10/18 13:34:20;;;;;;;;;14.67;12.33;;;;;;;;6311960;22;46575;-73
2023/10/18 13:36:45;;;;;;;;;13.67;11.67;;;;;;;;6340645;22;45290;-72
2023/10/18 13:39:13;;;;;;;;;27.00;26.25;;;;;;;;6341281;22;45256;-72
2023/10/18 13:41:39;;;;;;;;;14.33;14.33;;;;;;;;6341974;22;45318;-72
2023/10/18 13:44:04;;;;;;;;;10.67;10.67;;;;;;;;6341723;22;45326;-74
2023/10/18 13:46:30;;;;;;;;;16.33;15.33;;;;;;;;6341525;22;45238;-72
2023/10/18 13:48:55;;;;;;;;;13.67;11.67;;;;;;;;6341529;22;45081;-73
2023/10/18 13:51:21;;;;;;;;;12.67;12.67;;;;;;;;6341061;22;45262;-72
2023/10/18 13:53:46;;;;;;;;;10.33;9.33;;;;;;;;6340605;22;45380;-72
2023/10/18 13:56:12;;;;;;;;;13.00;12.00;;;;;;;;6340630;22;45851;-72
2023/10/18 13:58:39;;;;;;;;;12.33;10.67;;;;;;;;6341038;22;45090;-73
2023/10/18 14:01:05;;;;;;;;;9.00;9.00;;;;;;;;6286445;22;45396;-72
2023/10/18 14:03:31;;;;;;;;;13.33;9.33;;;;;;;;6340242;22;45450;-73
2023/10/18 14:05:57;;;;;;;;;10.00;10.00;;;;;;;;6311626;22;46724;-73
2023/10/18 14:08:24;;;;;;;;;10.67;8.00;;;;;;;;6312517;22;45349;-72
2023/10/18 14:10:54;;;;;;;;;10.00;9.00;;;;;;;;6340974;22;45534;-73
2023/10/18 14:13:20;;;;;;;;;12.00;11.33;;;;;;;;6340094;22;45346;-72
2023/10/18 14:15:45;;;;;;;;;10.33;8.67;;;;;;;;6312331;22;47072;-72
2023/10/18 14:18:10;;;;;;;;;13.33;10.00;;;;;;;;6340552;22;45290;-72
2023/10/18 14:20:43;;;;;;;;;8.33;8.00;;;;;;;;6312450;22;45364;-72
2023/10/18 14:23:10;;;;;;;;;11.33;10.00;;;;;;;;6339184;22;45215;-72
2023/10/18 14:25:37;;;;;;;;;10.33;8.00;;;;;;;;6310950;22;46334;-72
2023/10/18 14:28:03;;;;;;;;;8.67;7.67;;;;;;;;6340575;22;44691;-72
2023/10/18 14:30:32;;;;;;;;;6.00;6.00;;;;;;;;6340999;22;45253;-72
2023/10/18 14:33:00;;;;;;;;;6.33;5.00;;;;;;;;6340178;22;45140;-72
2023/10/18 14:35:27;;;;;;;;;5.67;5.67;;;;;;;;6340132;22;45492;-72
2023/10/18 14:37:52;;;;;;;;;6.00;6.00;;;;;;;;6311534;22;45295;-72
2023/10/18 14:40:27;;;;;;;;;23.67;21.00;;;;;;;;6339592;22;45254;-73
2023/10/18 14:42:52;;;;;;;;;7.33;5.33;;;;;;;;6340308;22;45408;-73
2023/10/18 14:45:18;;;;;;;;;8.00;8.00;;;;;;;;6311613;22;47510;-72
2023/10/18 14:47:43;;;;;;;;;8.67;6.67;;;;;;;;6339208;22;45328;-72
2023/10/18 14:50:10;;;;;;;;;11.33;7.67;;;;;;;;6341219;22;45231;-72
2023/10/18 14:52:39;;;;;;;;;11.00;8.33;;;;;;;;6312027;22;46134;-72
2023/10/18 14:55:04;;;;;;;;;5.67;5.33;;;;;;;;6340149;22;45238;-73
2023/10/18 14:57:29;;;;;;;;;7.00;5.00;;;;;;;;6340117;22;45310;-72
2023/10/18 14:59:54;;;;;;;;;6.00;6.00;;;;;;;;6341261;22;45250;-72
2023/10/18 15:02:20;;;;;;;;;4.67;4.33;;;;;;;;6340181;22;45229;-72
2023/10/18 15:04:49;;;;;;;;;10.67;10.67;;;;;;;;6340839;22;45274;-72
2023/10/18 15:07:16;;;;;;;;;15.33;15.33;;;;;;;;6340181;22;45333;-72
2023/10/18 15:09:42;;;;;;;;;5.33;4.67;;;;;;;;6340771;22;45355;-73
2023/10/18 15:12:07;;;;;;;;;15.00;15.00;;;;;;;;6340249;22;45144;-72
2023/10/18 15:14:32;;;;;;;;;27.33;23.33;;;;;;;;6340718;22;45592;-73
2023/10/18 15:16:59;;;;;;;;;11.33;10.00;;;;;;;;6339667;22;45158;-72
2023/10/18 15:19:27;;;;;;;;;45.33;37.67;;;;;;;;6340222;22;45339;-73
2023/10/18 15:21:52;;;;;;;;;18.00;15.33;;;;;;;;6339695;22;45458;-74
2023/10/18 15:24:17;;;;;;;;;16.33;14.67;;;;;;;;6340676;22;46401;-72
2023/10/18 15:26:42;;;;;;;;;16.33;10.67;;;;;;;;6310162;22;45397;-73
2023/10/18 15:29:08;;;;;;;;;12.67;11.67;;;;;;;;6340576;22;45381;-73
2023/10/18 15:31:34;;;;;;;;;18.00;14.67;;;;;;;;6339871;22;45392;-73
2023/10/18 15:33:59;;;;;;;;;14.00;12.67;;;;;;;;6340654;22;46064;-72
2023/10/18 15:36:25;;;;;;;;;11.00;10.00;;;;;;;;6340505;22;45251;-73
2023/10/18 15:38:54;;;;;;;;;17.67;17.67;;;;;;;;6311314;22;45357;-75
2023/10/18 15:41:20;;;;;;;;;8.67;8.67;;;;;;;;6339618;22;45477;-71
2023/10/18 15:43:48;;;;;;;;;21.67;19.00;;;;;;;;6339417;22;46220;-71
2023/10/18 15:46:15;;;;;;;;;21.67;20.67;;;;;;;;6338768;22;45383;-72
2023/10/18 15:48:50;;;;;;;;;29.00;26.67;;;;;;;;6338376;22;45310;-72
2023/10/18 15:51:16;;;;;;;;;8.67;8.67;;;;;;;;6339595;22;45408;-71
2023/10/18 15:53:41;;;;;;;;;19.67;19.00;;;;;;;;6310732;22;46484;-71
2023/10/18 15:56:09;;;;;;;;;11.00;7.00;;;;;;;;6336748;22;45261;-72
2023/10/18 15:58:34;;;;;;;;;8.33;7.67;;;;;;;;6335729;22;45814;-72
2023/10/18 16:01:00;;;;;;;;;11.00;10.00;;;;;;;;6339588;22;45270;-72
2023/10/18 16:03:25;;;;;;;;;7.33;7.33;;;;;;;;6339337;22;46054;-73
2023/10/18 16:05:51;;;;;;;;;7.67;6.00;;;;;;;;6339612;22;45192;-73
2023/10/18 16:08:16;;;;;;;;;10.00;8.33;;;;;;;;6338557;22;45200;-73
2023/10/18 16:10:41;;;;;;;;;7.67;7.67;;;;;;;;6340181;22;45457;-73
2023/10/18 16:13:09;;;;;;;;;5.33;5.33;;;;;;;;6339347;22;46049;-71
2023/10/18 16:15:34;;;;;;;;;5.00;5.00;;;;;;;;6338331;22;45349;-73
2023/10/18 16:18:00;;;;;;;;;8.00;7.67;;;;;;;;6339453;22;45145;-71
2023/10/18 16:20:25;;;;;;;;;5.67;4.00;;;;;;;;6340070;22;45199;-71
2023/10/18 16:22:50;;;;;;;;;3.00;3.00;;;;;;;;6339011;22;46331;-71
2023/10/18 16:25:15;;;;;;;;;4.00;4.00;;;;;;;;6339883;22;45247;-71
2023/10/18 16:27:41;;;;;;;;;4.00;4.00;;;;;;;;6339837;22;45247;-71
2023/10/18 16:30:06;;;;;;;;;3.33;3.33;;;;;;;;6338414;22;45351;-72
2023/10/18 16:32:32;;;;;;;;;3.67;3.67;;;;;;;;6338522;22;45274;-72
2023/10/18 16:34:57;;;;;;;;;3.00;3.00;;;;;;;;6339174;22;45238;-72
2023/10/18 16:37:22;;;;;;;;;3.67;3.67;;;;;;;;6340555;22;45217;-71
2023/10/18 16:39:48;;;;;;;;;3.33;3.33;;;;;;;;6340622;22;45185;-71
2023/10/18 16:42:13;;;;;;;;;3.00;3.00;;;;;;;;6339966;22;45206;-71
2023/10/18 16:44:38;;;;;;;;;2.33;2.00;;;;;;;;6312559;22;45819;-71
2023/10/18 16:47:04;;;;;;;;;2.33;2.33;;;;;;;;6340258;22;45341;-71
2023/10/18 16:49:29;;;;;;;;;4.00;4.00;;;;;;;;6340565;22;45226;-71
2023/10/18 16:51:57;;;;;;;;;5.67;2.33;;;;;;;;6340970;22;46214;-73
2023/10/18 16:54:23;;;;;;;;;2.00;2.00;;;;;;;;6312393;22;45811;-71
2023/10/18 16:56:48;;;;;;;;;2.33;2.33;;;;;;;;6340794;22;45322;-73
2023/10/18 16:59:13;;;;;;;;;3.00;3.00;;;;;;;;6340751;22;45794;-74
2023/10/18 17:01:38;;;;;;;;;3.00;3.00;;;;;;;;6340652;22;46495;-74
2023/10/18 17:04:04;;;;;;;;;4.00;3.00;;;;;;;;6312883;22;45626;-73
2023/10/18 17:06:29;;;;;;;;;2.33;2.33;;;;;;;;6340738;22;45275;-73
2023/10/18 17:08:57;;;;;;;;;3.67;3.00;;;;;;;;6341651;22;45487;-72
2023/10/18 17:11:22;;;;;;;;;3.00;2.00;;;;;;;;6339642;22;46834;-72
2023/10/18 17:13:47;;;;;;;;;2.00;2.00;;;;;;;;6341141;22;45210;-72
2023/10/18 17:16:14;;;;;;;;;3.33;1.67;;;;;;;;6340787;22;45298;-74
2023/10/18 17:18:39;;;;;;;;;1.67;1.67;;;;;;;;6340986;22;45860;-73
2023/10/18 17:21:05;;;;;;;;;2.00;2.00;;;;;;;;6341213;22;46601;-72
2023/10/18 17:23:30;;;;;;;;;2.00;1.67;;;;;;;;6341389;22;45305;-73
2023/10/18 17:25:55;;;;;;;;;3.67;3.67;;;;;;;;6341788;22;45270;-72
2023/10/18 17:28:21;;;;;;;;;7.67;5.67;;;;;;;;6341055;22;45242;-72
2023/10/18 17:30:47;;;;;;;;;1.00;1.00;;;;;;;;6341337;22;45989;-72
2023/10/18 17:33:13;;;;;;;;;2.00;1.00;;;;;;;;6340206;22;45353;-71
2023/10/18 17:35:41;;;;;;;;;1.00;1.00;;;;;;;;6341042;22;45239;-72
2023/10/18 17:38:10;;;;;;;;;0.67;0.67;;;;;;;;6340732;22;45215;-72
2023/10/18 17:40:35;;;;;;;;;1.67;0.67;;;;;;;;6340748;22;46259;-72
2023/10/18 17:43:01;;;;;;;;;4.33;2.00;;;;;;;;6340691;22;45337;-71
2023/10/18 17:45:26;;;;;;;;;1.00;1.00;;;;;;;;6341548;22;45420;-70
2023/10/18 17:47:52;;;;;;;;;1.67;1.67;;;;;;;;6338852;22;45424;-70
2023/10/18 17:50:18;;;;;;;;;2.00;2.00;;;;;;;;6341074;22;45184;-71
2023/10/18 17:52:46;;;;;;;;;2.00;2.00;;;;;;;;6340940;22;45224;-70
2023/10/18 17:55:14;;;;;;;;;0.67;0.67;;;;;;;;6340856;22;45435;-73
2023/10/18 17:57:40;;;;;;;;;2.00;2.00;;;;;;;;6340191;22;45477;-73
2023/10/18 18:02:51;;;;;;;;;1.67;1.00;;;;;;;;6340184;22;45235;-70
2023/10/18 18:05:17;;;;;;;;;1.00;1.00;;;;;;;;6341032;22;45233;-72
2023/10/18 18:07:43;;;;;;;;;0.00;0.00;;;;;;;;6340899;22;45369;-72
2023/10/18 18:10:09;;;;;;;;;3.00;2.00;;;;;;;;6340043;22;45413;-72
2023/10/18 18:12:35;;;;;;;;;0.67;0.67;;;;;;;;6340743;22;45622;-71
2023/10/18 18:15:03;;;;;;;;;0.00;0.00;;;;;;;;6341238;22;45259;-72
2023/10/18 18:17:28;;;;;;;;;0.67;0.67;;;;;;;;6340227;22;45096;-71
2023/10/18 18:19:55;;;;;;;;;0.00;0.00;;;;;;;;6341403;22;45244;-71
2023/10/18 18:22:21;;;;;;;;;2.00;2.00;;;;;;;;6340857;22;45262;-71
2023/10/18 18:24:46;;;;;;;;;1.00;1.00;;;;;;;;6341263;22;45258;-71
2023/10/18 18:27:11;;;;;;;;;1.00;1.00;;;;;;;;6340586;22;45338;-71
2023/10/18 18:29:36;;;;;;;;;0.67;0.67;;;;;;;;6313013;22;46532;-71
2023/10/18 18:32:03;;;;;;;;;0.00;0.00;;;;;;;;6340450;22;45231;-71
2023/10/18 18:34:28;;;;;;;;;2.33;1.00;;;;;;;;6341201;22;45259;-72
2023/10/18 18:36:53;;;;;;;;;1.00;1.00;;;;;;;;6340737;22;45192;-72
2023/10/18 18:39:20;;;;;;;;;0.67;0.67;;;;;;;;6341246;22;46260;-72
2023/10/18 18:41:46;;;;;;;;;3.33;1.00;;;;;;;;6340133;22;45211;-72
2023/10/18 18:44:11;;;;;;;;;0.00;0.00;;;;;;;;6340747;22;45375;-72
2023/10/18 18:46:36;;;;;;;;;1.67;1.67;;;;;;;;6339252;22;45320;-72
2023/10/18 18:49:03;;;;;;;;;0.67;0.67;;;;;;;;6340266;22;45203;-70
2023/10/18 18:51:28;;;;;;;;;5.00;0.33;;;;;;;;6339095;22;45163;-71
2023/10/18 18:53:56;;;;;;;;;3.33;1.67;;;;;;;;6312210;22;45275;-72
2023/10/18 18:56:22;;;;;;;;;1.67;0.67;;;;;;;;6340169;22;45285;-71
2023/10/18 18:58:47;;;;;;;;;0.67;0.67;;;;;;;;6338518;22;45273;-70
2023/10/18 19:01:12;;;;;;;;;2.00;1.00;;;;;;;;6340056;22;45321;-70
2023/10/18 19:03:38;;;;;;;;;1.33;0.67;;;;;;;;6340763;22;45298;-70
2023/10/18 19:06:04;;;;;;;;;0.33;0.33;;;;;;;;6340609;22;45181;-71
2023/10/18 19:08:29;;;;;;;;;0.00;0.00;;;;;;;;6312103;22;46036;-70
2023/10/18 19:10:54;;;;;;;;;1.67;0.67;;;;;;;;6340607;22;45393;-70
2023/10/18 19:13:19;;;;;;;;;0.00;0.00;;;;;;;;6340421;22;45241;-69
2023/10/18 19:15:45;;;;;;;;;0.00;0.00;;;;;;;;6339515;22;46187;-70
2023/10/18 19:18:12;;;;;;;;;0.67;0.67;;;;;;;;6310757;22;46485;-70
2023/10/18 19:20:37;;;;;;;;;0.67;0.67;;;;;;;;6311791;22;45225;-70
2023/10/18 19:23:03;;;;;;;;;2.67;0.67;;;;;;;;6311176;22;45486;-70
2023/10/18 19:25:31;;;;;;;;;0.33;0.33;;;;;;;;6340430;22;45204;-70
2023/10/18 19:27:57;;;;;;;;;2.00;0.67;;;;;;;;6301239;22;45660;-69
2023/10/18 19:30:22;;;;;;;;;2.00;1.00;;;;;;;;6340065;22;45175;-70
2023/10/18 19:32:47;;;;;;;;;2.33;1.00;;;;;;;;6340093;22;45958;-70
2023/10/18 19:35:14;;;;;;;;;0.00;0.00;;;;;;;;6340406;22;45261;-70
